sensor_id;sensor_type;location;lat;lon;timestamp;P1;durP1;ratioP1;P2;durP2;ratioP2
28627;SDS011;15815;46.760;19.604;2023-10-19T00:01:29;21.33;;;11.57;;
28627;SDS011;15815;46.760;19.604;2023-10-19T00:03:54;21.80;;;12.23;;
28627;SDS011;15815;46.760;19.604;2023-10-19T00:06:20;23.35;;;11.85;;
28627;SDS011;15815;46.760;19.604;2023-10-19T00:08:46;23.67;;;11.75;;
28627;SDS011;15815;46.760;19.604;2023-10-19T00:11:11;21.38;;;11.45;;
28627;SDS011;15815;46.760;19.604;2023-10-19T00:13:38;21.13;;;11.43;;
28627;SDS011;15815;46.760;19.604;2023-10-19T00:16:05;21.23;;;10.73;;
28627;SDS011;15815;46.760;19.604;2023-10-19T00:18:33;19.38;;;10.85;;
28627;SDS011;15815;46.760;19.604;2023-10-19T00:20:59;24.52;;;11.90;;
28627;SDS011;15815;46.760;19.604;2023-10-19T00:23:25;20.13;;;11.20;;
28627;SDS011;15815;46.760;19.604;2023-10-19T00:25:50;22.80;;;11.85;;
28627;SDS011;15815;46.760;19.604;2023-10-19T00:28:19;20.92;;;11.48;;
28627;SDS011;15815;46.760;19.604;2023-10-19T00:30:45;23.38;;;12.38;;
28627;SDS011;15815;46.760;19.604;2023-10-19T00:33:11;27.92;;;12.80;;
28627;SDS011;15815;46.760;19.604;2023-10-19T00:35:37;21.70;;;12.55;;
28627;SDS011;15815;46.760;19.604;2023-10-19T00:38:03;23.02;;;12.25;;
28627;SDS011;15815;46.760;19.604;2023-10-19T00:40:28;20.35;;;11.50;;
28627;SDS011;15815;46.760;19.604;2023-10-19T00:42:54;22.55;;;11.52;;
28627;SDS011;15815;46.760;19.604;2023-10-19T00:45:19;30.35;;;12.05;;
28627;SDS011;15815;46.760;19.604;2023-10-19T00:47:45;18.10;;;10.98;;
28627;SDS011;15815;46.760;19.604;2023-10-19T00:50:11;18.40;;;11.20;;
28627;SDS011;15815;46.760;19.604;2023-10-19T00:52:36;19.85;;;10.90;;
28627;SDS011;15815;46.760;19.604;2023-10-19T00:55:02;21.83;;;11.10;;
28627;SDS011;15815;46.760;19.604;2023-10-19T00:57:28;21.20;;;12.05;;
28627;SDS011;15815;46.760;19.604;2023-10-19T00:59:53;19.60;;;11.07;;
28627;SDS011;15815;46.760;19.604;2023-10-19T01:02:19;22.15;;;10.85;;
28627;SDS011;15815;46.760;19.604;2023-10-19T01:04:49;19.30;;;10.77;;
28627;SDS011;15815;46.760;19.604;2023-10-19T01:07:18;21.92;;;11.45;;
28627;SDS011;15815;46.760;19.604;2023-10-19T01:09:47;21.13;;;12.27;;
28627;SDS011;15815;46.760;19.604;2023-10-19T01:12:13;20.20;;;12.23;;
28627;SDS011;15815;46.760;19.604;2023-10-19T01:14:39;21.20;;;11.05;;
28627;SDS011;15815;46.760;19.604;2023-10-19T01:17:05;21.45;;;11.45;;
28627;SDS011;15815;46.760;19.604;2023-10-19T01:19:35;20.17;;;11.18;;
28627;SDS011;15815;46.760;19.604;2023-10-19T01:22:01;22.75;;;12.25;;
28627;SDS011;15815;46.760;19.604;2023-10-19T01:24:27;18.80;;;10.32;;
28627;SDS011;15815;46.760;19.604;2023-10-19T01:26:52;21.27;;;11.70;;
28627;SDS011;15815;46.760;19.604;2023-10-19T01:29:18;22.90;;;11.40;;
28627;SDS011;15815;46.760;19.604;2023-10-19T01:31:44;21.35;;;11.25;;
28627;SDS011;15815;46.760;19.604;2023-10-19T01:34:10;21.13;;;11.40;;
28627;SDS011;15815;46.760;19.604;2023-10-19T01:36:37;21.63;;;11.38;;
28627;SDS011;15815;46.760;19.604;2023-10-19T01:39:03;24.10;;;11.10;;
28627;SDS011;15815;46.760;19.604;2023-10-19T01:41:28;22.75;;;11.20;;
28627;SDS011;15815;46.760;19.604;2023-10-19T01:43:55;24.15;;;11.70;;
28627;SDS011;15815;46.760;19.604;2023-10-19T01:46:21;19.52;;;11.02;;
28627;SDS011;15815;46.760;19.604;2023-10-19T01:48:53;19.73;;;10.18;;
28627;SDS011;15815;46.760;19.604;2023-10-19T01:51:19;18.63;;;10.48;;
28627;SDS011;15815;46.760;19.604;2023-10-19T01:53:44;22.73;;;11.13;;
28627;SDS011;15815;46.760;19.604;2023-10-19T01:56:11;21.40;;;10.77;;
28627;SDS011;15815;46.760;19.604;2023-10-19T01:58:36;23.42;;;11.93;;
28627;SDS011;15815;46.760;19.604;2023-10-19T02:01:03;19.30;;;10.63;;
28627;SDS011;15815;46.760;19.604;2023-10-19T02:03:29;22.20;;;10.07;;
28627;SDS011;15815;46.760;19.604;2023-10-19T02:05:58;22.20;;;11.02;;
28627;SDS011;15815;46.760;19.604;2023-10-19T02:08:27;20.27;;;11.25;;
28627;SDS011;15815;46.760;19.604;2023-10-19T02:10:53;19.05;;;10.70;;
28627;SDS011;15815;46.760;19.604;2023-10-19T02:13:19;19.58;;;11.32;;
28627;SDS011;15815;46.760;19.604;2023-10-19T02:15:45;20.63;;;11.13;;
28627;SDS011;15815;46.760;19.604;2023-10-19T02:18:11;23.85;;;11.57;;
28627;SDS011;15815;46.760;19.604;2023-10-19T02:20:37;22.83;;;11.32;;
28627;SDS011;15815;46.760;19.604;2023-10-19T02:23:03;22.40;;;11.77;;
28627;SDS011;15815;46.760;19.604;2023-10-19T02:25:29;23.45;;;11.48;;
28627;SDS011;15815;46.760;19.604;2023-10-19T02:27:55;20.23;;;11.80;;
28627;SDS011;15815;46.760;19.604;2023-10-19T02:30:21;25.27;;;12.18;;
28627;SDS011;15815;46.760;19.604;2023-10-19T02:32:46;21.80;;;10.68;;
28627;SDS011;15815;46.760;19.604;2023-10-19T02:35:12;18.52;;;10.52;;
28627;SDS011;15815;46.760;19.604;2023-10-19T02:37:40;22.02;;;13.07;;
28627;SDS011;15815;46.760;19.604;2023-10-19T02:40:06;19.77;;;11.63;;
28627;SDS011;15815;46.760;19.604;2023-10-19T02:42:32;21.17;;;10.77;;
28627;SDS011;15815;46.760;19.604;2023-10-19T02:44:57;20.90;;;11.50;;
28627;SDS011;15815;46.760;19.604;2023-10-19T02:47:23;23.58;;;11.80;;
28627;SDS011;15815;46.760;19.604;2023-10-19T02:49:48;19.42;;;12.13;;
28627;SDS011;15815;46.760;19.604;2023-10-19T02:52:14;22.73;;;11.65;;
28627;SDS011;15815;46.760;19.604;2023-10-19T02:54:39;23.38;;;11.38;;
28627;SDS011;15815;46.760;19.604;2023-10-19T02:57:05;23.85;;;11.93;;
28627;SDS011;15815;46.760;19.604;2023-10-19T02:59:30;19.17;;;10.93;;
28627;SDS011;15815;46.760;19.604;2023-10-19T03:01:56;24.17;;;12.55;;
28627;SDS011;15815;46.760;19.604;2023-10-19T03:04:24;19.55;;;11.23;;
28627;SDS011;15815;46.760;19.604;2023-10-19T03:06:49;18.55;;;10.20;;
28627;SDS011;15815;46.760;19.604;2023-10-19T03:09:15;27.35;;;12.38;;
28627;SDS011;15815;46.760;19.604;2023-10-19T03:11:40;23.50;;;12.23;;
28627;SDS011;15815;46.760;19.604;2023-10-19T03:14:06;18.90;;;11.20;;
28627;SDS011;15815;46.760;19.604;2023-10-19T03:16:32;18.17;;;10.25;;
28627;SDS011;15815;46.760;19.604;2023-10-19T03:18:59;19.98;;;11.32;;
28627;SDS011;15815;46.760;19.604;2023-10-19T03:21:24;20.35;;;11.02;;
28627;SDS011;15815;46.760;19.604;2023-10-19T03:23:50;18.45;;;10.40;;
28627;SDS011;15815;46.760;19.604;2023-10-19T03:26:15;21.77;;;11.27;;
28627;SDS011;15815;46.760;19.604;2023-10-19T03:28:41;22.17;;;11.60;;
28627;SDS011;15815;46.760;19.604;2023-10-19T03:31:06;18.10;;;10.75;;
28627;SDS011;15815;46.760;19.604;2023-10-19T03:33:32;20.02;;;10.73;;
28627;SDS011;15815;46.760;19.604;2023-10-19T03:35:57;19.00;;;9.82;;
28627;SDS011;15815;46.760;19.604;2023-10-19T03:38:23;18.80;;;10.80;;
28627;SDS011;15815;46.760;19.604;2023-10-19T03:40:49;19.42;;;12.15;;
28627;SDS011;15815;46.760;19.604;2023-10-19T03:43:14;18.25;;;10.27;;
28627;SDS011;15815;46.760;19.604;2023-10-19T03:45:40;21.50;;;11.32;;
28627;SDS011;15815;46.760;19.604;2023-10-19T03:48:05;21.50;;;11.52;;
28627;SDS011;15815;46.760;19.604;2023-10-19T03:50:31;19.58;;;10.98;;
28627;SDS011;15815;46.760;19.604;2023-10-19T03:52:57;25.00;;;11.48;;
28627;SDS011;15815;46.760;19.604;2023-10-19T03:55:22;20.10;;;11.18;;
28627;SDS011;15815;46.760;19.604;2023-10-19T03:57:49;21.27;;;10.45;;
28627;SDS011;15815;46.760;19.604;2023-10-19T04:00:14;22.67;;;11.27;;
28627;SDS011;15815;46.760;19.604;2023-10-19T04:02:40;19.10;;;10.32;;
28627;SDS011;15815;46.760;19.604;2023-10-19T04:05:10;14.27;;;10.10;;
28627;SDS011;15815;46.760;19.604;2023-10-19T04:07:35;24.55;;;9.63;;
28627;SDS011;15815;46.760;19.604;2023-10-19T04:10:03;14.00;;;9.05;;
28627;SDS011;15815;46.760;19.604;2023-10-19T04:12:29;18.35;;;9.95;;
28627;SDS011;15815;46.760;19.604;2023-10-19T04:14:55;16.95;;;10.00;;
28627;SDS011;15815;46.760;19.604;2023-10-19T04:17:20;18.83;;;10.25;;
28627;SDS011;15815;46.760;19.604;2023-10-19T04:19:46;16.40;;;9.50;;
28627;SDS011;15815;46.760;19.604;2023-10-19T04:22:12;20.80;;;10.25;;
28627;SDS011;15815;46.760;19.604;2023-10-19T04:24:38;16.48;;;9.63;;
28627;SDS011;15815;46.760;19.604;2023-10-19T04:27:03;14.25;;;8.75;;
28627;SDS011;15815;46.760;19.604;2023-10-19T04:29:29;16.40;;;9.10;;
28627;SDS011;15815;46.760;19.604;2023-10-19T04:31:54;16.20;;;9.25;;
28627;SDS011;15815;46.760;19.604;2023-10-19T04:34:20;18.42;;;9.38;;
28627;SDS011;15815;46.760;19.604;2023-10-19T04:39:31;13.50;;;8.02;;
28627;SDS011;15815;46.760;19.604;2023-10-19T04:41:56;12.85;;;7.95;;
28627;SDS011;15815;46.760;19.604;2023-10-19T04:44:22;16.98;;;9.48;;
28627;SDS011;15815;46.760;19.604;2023-10-19T04:46:48;17.83;;;9.25;;
28627;SDS011;15815;46.760;19.604;2023-10-19T04:49:13;17.20;;;9.32;;
28627;SDS011;15815;46.760;19.604;2023-10-19T04:51:39;18.65;;;10.73;;
28627;SDS011;15815;46.760;19.604;2023-10-19T04:54:05;16.15;;;8.35;;
28627;SDS011;15815;46.760;19.604;2023-10-19T04:56:31;20.83;;;10.52;;
28627;SDS011;15815;46.760;19.604;2023-10-19T04:58:56;17.05;;;9.00;;
28627;SDS011;15815;46.760;19.604;2023-10-19T05:01:22;14.93;;;8.20;;
28627;SDS011;15815;46.760;19.604;2023-10-19T05:03:47;13.82;;;7.70;;
28627;SDS011;15815;46.760;19.604;2023-10-19T05:06:12;17.23;;;8.77;;
28627;SDS011;15815;46.760;19.604;2023-10-19T05:08:39;18.25;;;9.75;;
28627;SDS011;15815;46.760;19.604;2023-10-19T05:11:04;13.75;;;7.85;;
28627;SDS011;15815;46.760;19.604;2023-10-19T05:13:30;15.90;;;8.07;;
28627;SDS011;15815;46.760;19.604;2023-10-19T05:15:56;14.80;;;8.20;;
28627;SDS011;15815;46.760;19.604;2023-10-19T05:18:22;16.65;;;8.15;;
28627;SDS011;15815;46.760;19.604;2023-10-19T05:20:48;15.93;;;8.65;;
28627;SDS011;15815;46.760;19.604;2023-10-19T05:23:14;16.48;;;9.70;;
28627;SDS011;15815;46.760;19.604;2023-10-19T05:25:39;12.43;;;7.25;;
28627;SDS011;15815;46.760;19.604;2023-10-19T05:28:05;15.88;;;9.02;;
28627;SDS011;15815;46.760;19.604;2023-10-19T05:30:32;14.30;;;8.30;;
28627;SDS011;15815;46.760;19.604;2023-10-19T05:32:58;13.32;;;7.93;;
28627;SDS011;15815;46.760;19.604;2023-10-19T05:35:25;15.15;;;8.38;;
28627;SDS011;15815;46.760;19.604;2023-10-19T05:37:51;18.13;;;9.30;;
28627;SDS011;15815;46.760;19.604;2023-10-19T05:40:17;23.83;;;9.70;;
28627;SDS011;15815;46.760;19.604;2023-10-19T05:42:42;23.30;;;13.93;;
28627;SDS011;15815;46.760;19.604;2023-10-19T05:45:09;18.33;;;11.20;;
28627;SDS011;15815;46.760;19.604;2023-10-19T05:47:34;17.15;;;9.32;;
28627;SDS011;15815;46.760;19.604;2023-10-19T05:50:00;14.98;;;8.60;;
28627;SDS011;15815;46.760;19.604;2023-10-19T05:52:25;15.05;;;8.38;;
28627;SDS011;15815;46.760;19.604;2023-10-19T05:54:51;18.48;;;8.77;;
28627;SDS011;15815;46.760;19.604;2023-10-19T05:57:16;13.48;;;7.82;;
28627;SDS011;15815;46.760;19.604;2023-10-19T05:59:42;20.98;;;9.73;;
28627;SDS011;15815;46.760;19.604;2023-10-19T06:02:07;16.23;;;8.52;;
28627;SDS011;15815;46.760;19.604;2023-10-19T06:04:33;13.40;;;8.32;;
28627;SDS011;15815;46.760;19.604;2023-10-19T06:06:58;27.38;;;8.52;;
28627;SDS011;15815;46.760;19.604;2023-10-19T06:09:24;14.05;;;8.27;;
28627;SDS011;15815;46.760;19.604;2023-10-19T06:11:49;14.95;;;8.45;;
28627;SDS011;15815;46.760;19.604;2023-10-19T06:14:15;14.13;;;7.50;;
28627;SDS011;15815;46.760;19.604;2023-10-19T06:16:40;16.27;;;8.55;;
28627;SDS011;15815;46.760;19.604;2023-10-19T06:19:07;12.75;;;7.63;;
28627;SDS011;15815;46.760;19.604;2023-10-19T06:21:32;12.30;;;7.88;;
28627;SDS011;15815;46.760;19.604;2023-10-19T06:23:58;13.40;;;7.60;;
28627;SDS011;15815;46.760;19.604;2023-10-19T06:26:24;12.82;;;7.20;;
28627;SDS011;15815;46.760;19.604;2023-10-19T06:28:50;18.05;;;7.80;;
28627;SDS011;15815;46.760;19.604;2023-10-19T06:31:15;14.65;;;6.70;;
28627;SDS011;15815;46.760;19.604;2023-10-19T06:33:41;14.18;;;7.82;;
28627;SDS011;15815;46.760;19.604;2023-10-19T06:36:07;16.40;;;7.38;;
28627;SDS011;15815;46.760;19.604;2023-10-19T06:38:32;14.20;;;8.50;;
28627;SDS011;15815;46.760;19.604;2023-10-19T06:41:09;13.65;;;7.93;;
28627;SDS011;15815;46.760;19.604;2023-10-19T06:43:36;14.40;;;7.35;;
28627;SDS011;15815;46.760;19.604;2023-10-19T06:46:02;12.88;;;8.05;;
28627;SDS011;15815;46.760;19.604;2023-10-19T06:48:29;13.43;;;6.63;;
28627;SDS011;15815;46.760;19.604;2023-10-19T06:50:55;12.55;;;7.63;;
28627;SDS011;15815;46.760;19.604;2023-10-19T06:53:21;15.27;;;7.75;;
28627;SDS011;15815;46.760;19.604;2023-10-19T06:55:46;15.52;;;8.02;;
28627;SDS011;15815;46.760;19.604;2023-10-19T06:58:12;13.32;;;8.05;;
28627;SDS011;15815;46.760;19.604;2023-10-19T07:00:37;12.88;;;7.05;;
28627;SDS011;15815;46.760;19.604;2023-10-19T07:03:03;13.15;;;7.03;;
28627;SDS011;15815;46.760;19.604;2023-10-19T07:05:29;13.35;;;7.75;;
28627;SDS011;15815;46.760;19.604;2023-10-19T07:07:54;15.32;;;7.35;;
28627;SDS011;15815;46.760;19.604;2023-10-19T07:10:21;12.77;;;6.60;;
28627;SDS011;15815;46.760;19.604;2023-10-19T07:12:50;13.88;;;7.05;;
28627;SDS011;15815;46.760;19.604;2023-10-19T07:15:20;12.65;;;7.53;;
28627;SDS011;15815;46.760;19.604;2023-10-19T07:17:48;11.70;;;6.82;;
28627;SDS011;15815;46.760;19.604;2023-10-19T07:20:15;14.27;;;7.25;;
28627;SDS011;15815;46.760;19.604;2023-10-19T07:22:42;14.02;;;7.30;;
28627;SDS011;15815;46.760;19.604;2023-10-19T07:25:07;15.55;;;8.00;;
28627;SDS011;15815;46.760;19.604;2023-10-19T07:27:34;12.05;;;7.25;;
28627;SDS011;15815;46.760;19.604;2023-10-19T07:30:00;10.85;;;6.30;;
28627;SDS011;15815;46.760;19.604;2023-10-19T07:32:28;11.80;;;7.28;;
28627;SDS011;15815;46.760;19.604;2023-10-19T07:34:53;16.40;;;8.02;;
28627;SDS011;15815;46.760;19.604;2023-10-19T07:37:19;11.38;;;6.43;;
28627;SDS011;15815;46.760;19.604;2023-10-19T07:39:45;11.60;;;7.10;;
28627;SDS011;15815;46.760;19.604;2023-10-19T07:42:13;12.00;;;6.63;;
28627;SDS011;15815;46.760;19.604;2023-10-19T07:44:40;10.40;;;6.43;;
28627;SDS011;15815;46.760;19.604;2023-10-19T07:47:07;9.73;;;6.75;;
28627;SDS011;15815;46.760;19.604;2023-10-19T07:49:33;11.48;;;5.63;;
28627;SDS011;15815;46.760;19.604;2023-10-19T07:51:58;8.85;;;5.28;;
28627;SDS011;15815;46.760;19.604;2023-10-19T07:54:27;10.35;;;5.85;;
28627;SDS011;15815;46.760;19.604;2023-10-19T07:56:52;8.50;;;5.25;;
28627;SDS011;15815;46.760;19.604;2023-10-19T07:59:19;8.88;;;5.10;;
28627;SDS011;15815;46.760;19.604;2023-10-19T08:01:44;7.20;;;4.70;;
28627;SDS011;15815;46.760;19.604;2023-10-19T08:04:10;7.78;;;5.22;;
28627;SDS011;15815;46.760;19.604;2023-10-19T08:06:35;7.13;;;5.03;;
28627;SDS011;15815;46.760;19.604;2023-10-19T08:09:04;7.10;;;4.53;;
28627;SDS011;15815;46.760;19.604;2023-10-19T08:11:29;6.15;;;4.10;;
28627;SDS011;15815;46.760;19.604;2023-10-19T08:13:55;7.00;;;3.95;;
28627;SDS011;15815;46.760;19.604;2023-10-19T08:16:22;8.63;;;4.50;;
28627;SDS011;15815;46.760;19.604;2023-10-19T08:18:51;7.07;;;4.28;;
28627;SDS011;15815;46.760;19.604;2023-10-19T08:21:16;5.85;;;4.13;;
28627;SDS011;15815;46.760;19.604;2023-10-19T08:23:42;6.43;;;4.35;;
28627;SDS011;15815;46.760;19.604;2023-10-19T08:26:10;5.88;;;3.85;;
28627;SDS011;15815;46.760;19.604;2023-10-19T08:28:36;8.75;;;4.20;;
28627;SDS011;15815;46.760;19.604;2023-10-19T08:31:01;6.80;;;4.32;;
28627;SDS011;15815;46.760;19.604;2023-10-19T08:33:27;6.55;;;4.03;;
28627;SDS011;15815;46.760;19.604;2023-10-19T08:35:53;6.95;;;4.22;;
28627;SDS011;15815;46.760;19.604;2023-10-19T08:38:27;6.22;;;4.10;;
28627;SDS011;15815;46.760;19.604;2023-10-19T08:40:52;6.43;;;4.10;;
28627;SDS011;15815;46.760;19.604;2023-10-19T08:43:18;6.80;;;4.40;;
28627;SDS011;15815;46.760;19.604;2023-10-19T08:45:44;7.18;;;4.60;;
28627;SDS011;15815;46.760;19.604;2023-10-19T08:48:10;7.07;;;4.55;;
28627;SDS011;15815;46.760;19.604;2023-10-19T08:50:36;9.05;;;4.75;;
28627;SDS011;15815;46.760;19.604;2023-10-19T08:53:02;6.68;;;4.22;;
28627;SDS011;15815;46.760;19.604;2023-10-19T08:55:31;8.18;;;4.40;;
28627;SDS011;15815;46.760;19.604;2023-10-19T08:57:57;5.80;;;4.03;;
28627;SDS011;15815;46.760;19.604;2023-10-19T09:00:23;4.55;;;3.58;;
28627;SDS011;15815;46.760;19.604;2023-10-19T09:02:48;5.57;;;3.90;;
28627;SDS011;15815;46.760;19.604;2023-10-19T09:05:14;7.07;;;3.90;;
28627;SDS011;15815;46.760;19.604;2023-10-19T09:07:40;7.00;;;3.92;;
28627;SDS011;15815;46.760;19.604;2023-10-19T09:10:05;7.07;;;3.80;;
28627;SDS011;15815;46.760;19.604;2023-10-19T09:12:31;6.13;;;3.80;;
28627;SDS011;15815;46.760;19.604;2023-10-19T09:14:57;8.02;;;4.72;;
28627;SDS011;15815;46.760;19.604;2023-10-19T09:17:28;7.00;;;4.22;;
28627;SDS011;15815;46.760;19.604;2023-10-19T09:19:54;7.53;;;4.38;;
28627;SDS011;15815;46.760;19.604;2023-10-19T09:22:19;7.38;;;3.78;;
28627;SDS011;15815;46.760;19.604;2023-10-19T09:24:45;4.82;;;3.47;;
28627;SDS011;15815;46.760;19.604;2023-10-19T09:27:11;6.35;;;3.78;;
28627;SDS011;15815;46.760;19.604;2023-10-19T09:29:38;5.65;;;3.10;;
28627;SDS011;15815;46.760;19.604;2023-10-19T09:32:05;5.70;;;3.05;;
28627;SDS011;15815;46.760;19.604;2023-10-19T09:34:30;5.95;;;3.13;;
28627;SDS011;15815;46.760;19.604;2023-10-19T09:36:57;5.75;;;3.22;;
28627;SDS011;15815;46.760;19.604;2023-10-19T09:39:24;6.45;;;3.58;;
28627;SDS011;15815;46.760;19.604;2023-10-19T09:41:49;5.20;;;3.40;;
28627;SDS011;15815;46.760;19.604;2023-10-19T09:44:20;6.68;;;3.13;;
28627;SDS011;15815;46.760;19.604;2023-10-19T09:46:50;4.60;;;2.95;;
28627;SDS011;15815;46.760;19.604;2023-10-19T09:49:22;5.97;;;3.40;;
28627;SDS011;15815;46.760;19.604;2023-10-19T09:51:50;4.40;;;3.00;;
28627;SDS011;15815;46.760;19.604;2023-10-19T09:54:17;4.82;;;3.03;;
28627;SDS011;15815;46.760;19.604;2023-10-19T09:56:52;3.05;;;2.30;;
28627;SDS011;15815;46.760;19.604;2023-10-19T09:59:32;3.72;;;2.53;;
28627;SDS011;15815;46.760;19.604;2023-10-19T10:02:03;4.45;;;2.92;;
28627;SDS011;15815;46.760;19.604;2023-10-19T10:04:32;5.78;;;2.97;;
28627;SDS011;15815;46.760;19.604;2023-10-19T10:06:59;7.05;;;2.78;;
28627;SDS011;15815;46.760;19.604;2023-10-19T10:09:28;4.93;;;2.83;;
28627;SDS011;15815;46.760;19.604;2023-10-19T10:11:54;3.20;;;2.42;;
28627;SDS011;15815;46.760;19.604;2023-10-19T10:14:24;4.93;;;2.78;;
28627;SDS011;15815;46.760;19.604;2023-10-19T10:17:02;3.20;;;2.65;;
28627;SDS011;15815;46.760;19.604;2023-10-19T10:19:27;5.10;;;2.38;;
28627;SDS011;15815;46.760;19.604;2023-10-19T10:22:03;6.25;;;2.15;;
28627;SDS011;15815;46.760;19.604;2023-10-19T10:24:32;3.40;;;2.40;;
28627;SDS011;15815;46.760;19.604;2023-10-19T10:26:58;3.42;;;2.63;;
28627;SDS011;15815;46.760;19.604;2023-10-19T10:29:24;5.55;;;2.97;;
28627;SDS011;15815;46.760;19.604;2023-10-19T10:31:50;3.17;;;2.10;;
28627;SDS011;15815;46.760;19.604;2023-10-19T10:37:06;4.68;;;2.30;;
28627;SDS011;15815;46.760;19.604;2023-10-19T10:39:33;6.93;;;2.28;;
28627;SDS011;15815;46.760;19.604;2023-10-19T10:42:01;4.35;;;2.47;;
28627;SDS011;15815;46.760;19.604;2023-10-19T10:44:45;4.20;;;2.50;;
28627;SDS011;15815;46.760;19.604;2023-10-19T10:47:12;4.28;;;2.15;;
28627;SDS011;15815;46.760;19.604;2023-10-19T10:52:25;2.55;;;2.17;;
28627;SDS011;15815;46.760;19.604;2023-10-19T10:55:07;4.68;;;2.90;;
28627;SDS011;15815;46.760;19.604;2023-10-19T10:57:36;4.00;;;2.53;;
28627;SDS011;15815;46.760;19.604;2023-10-19T11:00:03;3.55;;;2.63;;
28627;SDS011;15815;46.760;19.604;2023-10-19T11:02:29;3.08;;;2.15;;
28627;SDS011;15815;46.760;19.604;2023-10-19T11:04:55;4.90;;;2.55;;
28627;SDS011;15815;46.760;19.604;2023-10-19T11:07:20;3.78;;;2.17;;
28627;SDS011;15815;46.760;19.604;2023-10-19T11:12:11;6.27;;;3.07;;
28627;SDS011;15815;46.760;19.604;2023-10-19T11:15:00;5.65;;;3.17;;
28627;SDS011;15815;46.760;19.604;2023-10-19T11:17:25;5.25;;;2.95;;
28627;SDS011;15815;46.760;19.604;2023-10-19T11:19:55;3.72;;;2.63;;
28627;SDS011;15815;46.760;19.604;2023-10-19T11:22:21;2.78;;;2.22;;
28627;SDS011;15815;46.760;19.604;2023-10-19T11:24:50;4.18;;;2.30;;
28627;SDS011;15815;46.760;19.604;2023-10-19T11:27:21;5.03;;;2.33;;
28627;SDS011;15815;46.760;19.604;2023-10-19T11:29:57;4.30;;;2.50;;
28627;SDS011;15815;46.760;19.604;2023-10-19T11:32:23;6.78;;;2.15;;
28627;SDS011;15815;46.760;19.604;2023-10-19T11:34:50;4.82;;;2.20;;
28627;SDS011;15815;46.760;19.604;2023-10-19T11:37:16;2.65;;;2.20;;
28627;SDS011;15815;46.760;19.604;2023-10-19T11:39:42;6.68;;;2.40;;
28627;SDS011;15815;46.760;19.604;2023-10-19T11:42:08;3.67;;;2.40;;
28627;SDS011;15815;46.760;19.604;2023-10-19T11:44:37;3.97;;;2.47;;
28627;SDS011;15815;46.760;19.604;2023-10-19T11:47:02;4.82;;;2.55;;
28627;SDS011;15815;46.760;19.604;2023-10-19T11:49:28;3.55;;;2.17;;
28627;SDS011;15815;46.760;19.604;2023-10-19T11:51:53;3.75;;;2.33;;
28627;SDS011;15815;46.760;19.604;2023-10-19T11:54:19;6.90;;;2.58;;
28627;SDS011;15815;46.760;19.604;2023-10-19T11:56:44;4.45;;;2.55;;
28627;SDS011;15815;46.760;19.604;2023-10-19T11:59:10;3.90;;;2.70;;
28627;SDS011;15815;46.760;19.604;2023-10-19T12:01:38;7.35;;;2.65;;
28627;SDS011;15815;46.760;19.604;2023-10-19T12:04:04;3.78;;;2.38;;
28627;SDS011;15815;46.760;19.604;2023-10-19T12:06:30;4.22;;;2.58;;
28627;SDS011;15815;46.760;19.604;2023-10-19T12:08:56;3.55;;;2.45;;
28627;SDS011;15815;46.760;19.604;2023-10-19T12:11:22;3.95;;;2.20;;
28627;SDS011;15815;46.760;19.604;2023-10-19T12:13:50;2.75;;;2.03;;
28627;SDS011;15815;46.760;19.604;2023-10-19T12:16:16;4.40;;;2.47;;
28627;SDS011;15815;46.760;19.604;2023-10-19T12:18:43;6.25;;;2.50;;
28627;SDS011;15815;46.760;19.604;2023-10-19T12:21:10;5.30;;;2.55;;
28627;SDS011;15815;46.760;19.604;2023-10-19T12:23:36;3.35;;;2.47;;
28627;SDS011;15815;46.760;19.604;2023-10-19T12:26:04;3.55;;;2.30;;
28627;SDS011;15815;46.760;19.604;2023-10-19T12:28:30;3.85;;;1.90;;
28627;SDS011;15815;46.760;19.604;2023-10-19T12:30:58;4.68;;;2.63;;
28627;SDS011;15815;46.760;19.604;2023-10-19T12:33:23;3.85;;;2.40;;
28627;SDS011;15815;46.760;19.604;2023-10-19T12:35:50;6.00;;;2.35;;
28627;SDS011;15815;46.760;19.604;2023-10-19T12:38:16;4.32;;;2.30;;
28627;SDS011;15815;46.760;19.604;2023-10-19T12:40:44;7.95;;;2.40;;
28627;SDS011;15815;46.760;19.604;2023-10-19T12:43:14;4.43;;;2.42;;
28627;SDS011;15815;46.760;19.604;2023-10-19T12:45:40;4.15;;;2.50;;
28627;SDS011;15815;46.760;19.604;2023-10-19T12:48:06;3.97;;;2.15;;
28627;SDS011;15815;46.760;19.604;2023-10-19T12:50:35;6.28;;;2.88;;
28627;SDS011;15815;46.760;19.604;2023-10-19T12:53:02;5.47;;;2.90;;
28627;SDS011;15815;46.760;19.604;2023-10-19T12:55:28;4.78;;;2.30;;
28627;SDS011;15815;46.760;19.604;2023-10-19T12:57:53;3.70;;;2.20;;
28627;SDS011;15815;46.760;19.604;2023-10-19T13:00:19;5.82;;;2.80;;
28627;SDS011;15815;46.760;19.604;2023-10-19T13:02:44;3.67;;;2.40;;
28627;SDS011;15815;46.760;19.604;2023-10-19T13:05:10;7.22;;;3.17;;
28627;SDS011;15815;46.760;19.604;2023-10-19T13:07:38;5.18;;;2.70;;
28627;SDS011;15815;46.760;19.604;2023-10-19T13:10:04;3.58;;;2.67;;
28627;SDS011;15815;46.760;19.604;2023-10-19T13:12:30;7.45;;;2.70;;
28627;SDS011;15815;46.760;19.604;2023-10-19T13:14:55;5.75;;;2.75;;
28627;SDS011;15815;46.760;19.604;2023-10-19T13:17:21;4.57;;;2.90;;
28627;SDS011;15815;46.760;19.604;2023-10-19T13:19:46;6.50;;;3.05;;
28627;SDS011;15815;46.760;19.604;2023-10-19T13:22:12;8.25;;;2.63;;
28627;SDS011;15815;46.760;19.604;2023-10-19T13:24:39;4.38;;;2.40;;
28627;SDS011;15815;46.760;19.604;2023-10-19T13:27:04;5.65;;;2.10;;
28627;SDS011;15815;46.760;19.604;2023-10-19T13:29:30;6.07;;;2.38;;
28627;SDS011;15815;46.760;19.604;2023-10-19T13:31:55;3.42;;;2.25;;
28627;SDS011;15815;46.760;19.604;2023-10-19T13:34:22;4.63;;;2.55;;
28627;SDS011;15815;46.760;19.604;2023-10-19T13:36:47;6.70;;;3.53;;
28627;SDS011;15815;46.760;19.604;2023-10-19T13:39:14;10.02;;;3.58;;
28627;SDS011;15815;46.760;19.604;2023-10-19T13:41:39;4.82;;;2.75;;
28627;SDS011;15815;46.760;19.604;2023-10-19T13:46:33;6.43;;;2.35;;
28627;SDS011;15815;46.760;19.604;2023-10-19T13:48:59;8.48;;;2.45;;
28627;SDS011;15815;46.760;19.604;2023-10-19T13:51:25;6.00;;;3.10;;
28627;SDS011;15815;46.760;19.604;2023-10-19T13:53:50;3.50;;;2.22;;
28627;SDS011;15815;46.760;19.604;2023-10-19T13:56:16;3.83;;;2.35;;
28627;SDS011;15815;46.760;19.604;2023-10-19T13:58:41;4.05;;;2.38;;
28627;SDS011;15815;46.760;19.604;2023-10-19T14:01:07;6.20;;;2.47;;
28627;SDS011;15815;46.760;19.604;2023-10-19T14:03:34;5.75;;;2.90;;
28627;SDS011;15815;46.760;19.604;2023-10-19T14:06:00;3.30;;;2.13;;
28627;SDS011;15815;46.760;19.604;2023-10-19T14:08:25;5.70;;;3.13;;
28627;SDS011;15815;46.760;19.604;2023-10-19T14:10:51;7.15;;;2.80;;
28627;SDS011;15815;46.760;19.604;2023-10-19T14:13:16;6.20;;;2.70;;
28627;SDS011;15815;46.760;19.604;2023-10-19T14:15:42;5.72;;;2.88;;
28627;SDS011;15815;46.760;19.604;2023-10-19T14:18:13;4.70;;;2.78;;
28627;SDS011;15815;46.760;19.604;2023-10-19T14:20:39;7.07;;;2.50;;
28627;SDS011;15815;46.760;19.604;2023-10-19T14:23:04;4.88;;;2.03;;
28627;SDS011;15815;46.760;19.604;2023-10-19T14:25:37;5.45;;;2.90;;
28627;SDS011;15815;46.760;19.604;2023-10-19T14:28:03;4.00;;;2.20;;
28627;SDS011;15815;46.760;19.604;2023-10-19T14:30:31;7.40;;;3.50;;
28627;SDS011;15815;46.760;19.604;2023-10-19T14:32:58;3.85;;;2.80;;